sensor_id;sensor_type;location;lat;lon;timestamp;temperature;humidity
20985;DHT22;10651;47.552;7.606;2023-03-23T06:29:15;13.90;99.90
20985;DHT22;10651;47.552;7.606;2023-03-23T06:35:16;13.90;99.90
20985;DHT22;10651;47.552;7.606;2023-03-23T06:38:05;13.90;99.90
20985;DHT22;10651;47.552;7.606;2023-03-23T06:40:41;14.00;99.90
20985;DHT22;10651;47.552;7.606;2023-03-23T06:43:43;13.90;99.90
20985;DHT22;10651;47.552;7.606;2023-03-23T06:46:14;14.00;99.90
20985;DHT22;10651;47.552;7.606;2023-03-23T06:48:42;14.00;99.90
20985;DHT22;10651;47.552;7.606;2023-03-23T06:51:11;14.00;99.90
20985;DHT22;10651;47.552;7.606;2023-03-23T06:53:39;14.00;99.90
20985;DHT22;10651;47.552;7.606;2023-03-23T06:56:05;14.10;99.90
20985;DHT22;10651;47.552;7.606;2023-03-23T06:58:31;14.20;99.90
20985;DHT22;10651;47.552;7.606;2023-03-23T07:00:59;14.20;99.90
20985;DHT22;10651;47.552;7.606;2023-03-23T07:03:26;14.20;99.90
20985;DHT22;10651;47.552;7.606;2023-03-23T07:05:54;14.20;99.90
20985;DHT22;10651;47.552;7.606;2023-03-23T07:08:20;14.30;99.90
20985;DHT22;10651;47.552;7.606;2023-03-23T07:10:47;14.30;99.90
20985;DHT22;10651;47.552;7.606;2023-03-23T07:13:23;14.40;99.90
20985;DHT22;10651;47.552;7.606;2023-03-23T07:15:49;14.40;99.90
20985;DHT22;10651;47.552;7.606;2023-03-23T07:18:18;14.40;99.90
20985;DHT22;10651;47.552;7.606;2023-03-23T07:20:47;14.40;99.90
20985;DHT22;10651;47.552;7.606;2023-03-23T07:23:17;14.40;99.90
20985;DHT22;10651;47.552;7.606;2023-03-23T07:25:44;14.40;99.90
20985;DHT22;10651;47.552;7.606;2023-03-23T07:28:12;14.50;99.90
20985;DHT22;10651;47.552;7.606;2023-03-23T07:30:39;14.60;99.90
20985;DHT22;10651;47.552;7.606;2023-03-23T07:33:08;14.70;99.90
20985;DHT22;10651;47.552;7.606;2023-03-23T07:35:38;14.70;99.90
20985;DHT22;10651;47.552;7.606;2023-03-23T07:38:05;14.80;99.90
20985;DHT22;10651;47.552;7.606;2023-03-23T07:40:42;14.90;99.90
20985;DHT22;10651;47.552;7.606;2023-03-23T07:43:11;15.00;99.90
20985;DHT22;10651;47.552;7.606;2023-03-23T07:45:40;15.00;99.90
20985;DHT22;10651;47.552;7.606;2023-03-23T07:48:11;15.10;99.90
20985;DHT22;10651;47.552;7.606;2023-03-23T07:50:40;15.20;99.90
20985;DHT22;10651;47.552;7.606;2023-03-23T07:53:16;15.20;99.90
20985;DHT22;10651;47.552;7.606;2023-03-23T07:55:44;15.30;99.90
20985;DHT22;10651;47.552;7.606;2023-03-23T07:58:12;15.30;99.90
20985;DHT22;10651;47.552;7.606;2023-03-23T08:00:43;15.30;99.90
20985;DHT22;10651;47.552;7.606;2023-03-23T08:03:10;15.40;99.90
20985;DHT22;10651;47.552;7.606;2023-03-23T08:05:36;15.50;99.90
20985;DHT22;10651;47.552;7.606;2023-03-23T08:08:04;15.40;99.90
20985;DHT22;10651;47.552;7.606;2023-03-23T08:10:33;15.40;99.90
20985;DHT22;10651;47.552;7.606;2023-03-23T08:12:59;15.40;99.90
20985;DHT22;10651;47.552;7.606;2023-03-23T08:15:25;15.50;99.90
20985;DHT22;10651;47.552;7.606;2023-03-23T08:17:52;15.60;99.90
20985;DHT22;10651;47.552;7.606;2023-03-23T08:20:18;15.50;99.90
20985;DHT22;10651;47.552;7.606;2023-03-23T08:22:55;15.60;99.90
20985;DHT22;10651;47.552;7.606;2023-03-23T08:25:21;15.80;99.90
20985;DHT22;10651;47.552;7.606;2023-03-23T08:27:48;15.70;99.90
20985;DHT22;10651;47.552;7.606;2023-03-23T08:30:17;15.70;99.90
20985;DHT22;10651;47.552;7.606;2023-03-23T08:32:47;15.60;99.90
20985;DHT22;10651;47.552;7.606;2023-03-23T08:35:14;15.60;99.90
20985;DHT22;10651;47.552;7.606;2023-03-23T08:37:41;15.60;99.90
20985;DHT22;10651;47.552;7.606;2023-03-23T08:40:09;15.70;99.90
20985;DHT22;10651;47.552;7.606;2023-03-23T08:42:40;15.70;99.90
20985;DHT22;10651;47.552;7.606;2023-03-23T08:45:13;15.80;99.90
20985;DHT22;10651;47.552;7.606;2023-03-23T08:47:44;15.90;99.90
20985;DHT22;10651;47.552;7.606;2023-03-23T08:50:13;16.10;99.90
20985;DHT22;10651;47.552;7.606;2023-03-23T08:52:41;16.20;99.90
20985;DHT22;10651;47.552;7.606;2023-03-23T08:55:09;16.30;99.90
20985;DHT22;10651;47.552;7.606;2023-03-23T08:57:38;16.30;99.90
20985;DHT22;10651;47.552;7.606;2023-03-23T09:00:08;16.40;99.90
20985;DHT22;10651;47.552;7.606;2023-03-23T09:02:57;16.40;99.90
20985;DHT22;10651;47.552;7.606;2023-03-23T09:05:25;16.30;99.90
20985;DHT22;10651;47.552;7.606;2023-03-23T09:07:57;16.20;99.90
20985;DHT22;10651;47.552;7.606;2023-03-23T09:10:27;16.30;99.90
20985;DHT22;10651;47.552;7.606;2023-03-23T09:13:05;16.30;99.90
20985;DHT22;10651;47.552;7.606;2023-03-23T09:15:34;16.30;99.90
20985;DHT22;10651;47.552;7.606;2023-03-23T09:18:00;16.40;99.90
20985;DHT22;10651;47.552;7.606;2023-03-23T09:20:27;16.50;99.90
20985;DHT22;10651;47.552;7.606;2023-03-23T09:23:08;16.50;99.90
20985;DHT22;10651;47.552;7.606;2023-03-23T09:25:43;16.50;99.90
20985;DHT22;10651;47.552;7.606;2023-03-23T09:28:27;16.40;99.90
20985;DHT22;10651;47.552;7.606;2023-03-23T09:30:57;16.40;99.90
20985;DHT22;10651;47.552;7.606;2023-03-23T09:33:25;16.40;99.90
20985;DHT22;10651;47.552;7.606;2023-03-23T09:39:25;16.60;99.90
20985;DHT22;10651;47.552;7.606;2023-03-23T09:42:33;16.60;99.90
20985;DHT22;10651;47.552;7.606;2023-03-23T09:45:25;16.70;99.90
20985;DHT22;10651;47.552;7.606;2023-03-23T09:50:25;16.80;99.90
20985;DHT22;10651;47.552;7.606;2023-03-23T09:53:19;16.90;99.90
20985;DHT22;10651;47.552;7.606;2023-03-23T09:56:29;17.00;99.90
20985;DHT22;10651;47.552;7.606;2023-03-23T10:03:05;17.20;99.90
20985;DHT22;10651;47.552;7.606;2023-03-23T10:05:49;17.40;99.90
20985;DHT22;10651;47.552;7.606;2023-03-23T10:15:29;17.30;99.90
20985;DHT22;10651;47.552;7.606;2023-03-23T10:18:38;17.00;99.90
20985;DHT22;10651;47.552;7.606;2023-03-23T10:21:16;16.90;99.90
20985;DHT22;10651;47.552;7.606;2023-03-23T10:27:22;17.00;99.90
20985;DHT22;10651;47.552;7.606;2023-03-23T10:31:17;17.10;99.90
20985;DHT22;10651;47.552;7.606;2023-03-23T10:33:54;17.50;99.90
20985;DHT22;10651;47.552;7.606;2023-03-23T10:40:19;17.70;99.90
20985;DHT22;10651;47.552;7.606;2023-03-23T10:42:49;17.70;99.90
20985;DHT22;10651;47.552;7.606;2023-03-23T10:45:45;17.90;99.90
20985;DHT22;10651;47.552;7.606;2023-03-23T10:48:33;18.10;99.90
20985;DHT22;10651;47.552;7.606;2023-03-23T10:51:53;18.20;99.90
20985;DHT22;10651;47.552;7.606;2023-03-23T10:58:11;18.30;99.90
20985;DHT22;10651;47.552;7.606;2023-03-23T11:00:45;18.40;99.90
20985;DHT22;10651;47.552;7.606;2023-03-23T11:03:26;18.80;99.90
20985;DHT22;10651;47.552;7.606;2023-03-23T11:06:35;19.10;99.90
20985;DHT22;10651;47.552;7.606;2023-03-23T11:09:36;19.60;99.90
20985;DHT22;10651;47.552;7.606;2023-03-23T11:12:03;20.00;99.90
20985;DHT22;10651;47.552;7.606;2023-03-23T11:14:34;20.10;99.90
20985;DHT22;10651;47.552;7.606;2023-03-23T11:17:19;20.40;99.90
20985;DHT22;10651;47.552;7.606;2023-03-23T11:19:46;20.30;99.90
20985;DHT22;10651;47.552;7.606;2023-03-23T11:22:31;20.20;99.90
20985;DHT22;10651;47.552;7.606;2023-03-23T11:25:05;20.40;99.90
20985;DHT22;10651;47.552;7.606;2023-03-23T11:27:32;20.50;99.90
20985;DHT22;10651;47.552;7.606;2023-03-23T11:30:26;20.50;99.90
20985;DHT22;10651;47.552;7.606;2023-03-23T11:32:58;20.60;99.90
20985;DHT22;10651;47.552;7.606;2023-03-23T11:35:27;20.40;99.90
20985;DHT22;10651;47.552;7.606;2023-03-23T11:37:58;20.20;99.90
20985;DHT22;10651;47.552;7.606;2023-03-23T11:40:59;20.00;99.90
20985;DHT22;10651;47.552;7.606;2023-03-23T11:43:28;19.80;99.90
20985;DHT22;10651;47.552;7.606;2023-03-23T11:46:24;19.70;99.90
20985;DHT22;10651;47.552;7.606;2023-03-23T11:49:01;19.60;99.90
20985;DHT22;10651;47.552;7.606;2023-03-23T11:54:34;19.60;99.90
20985;DHT22;10651;47.552;7.606;2023-03-23T11:57:10;19.50;99.90
20985;DHT22;10651;47.552;7.606;2023-03-23T11:59:44;19.50;99.90
20985;DHT22;10651;47.552;7.606;2023-03-23T12:05:34;19.40;99.90
20985;DHT22;10651;47.552;7.606;2023-03-23T12:21:55;19.40;99.90
20985;DHT22;10651;47.552;7.606;2023-03-23T12:30:12;19.50;99.90
20985;DHT22;10651;47.552;7.606;2023-03-23T12:32:54;19.70;99.90
20985;DHT22;10651;47.552;7.606;2023-03-23T12:38:12;19.60;99.90
20985;DHT22;10651;47.552;7.606;2023-03-23T12:41:15;19.50;99.90
20985;DHT22;10651;47.552;7.606;2023-03-23T12:46:20;19.00;99.90
20985;DHT22;10651;47.552;7.606;2023-03-23T12:49:11;19.00;99.90
20985;DHT22;10651;47.552;7.606;2023-03-23T12:54:51;19.00;99.90
20985;DHT22;10651;47.552;7.606;2023-03-23T12:57:43;19.00;99.90
20985;DHT22;10651;47.552;7.606;2023-03-23T13:00:29;19.00;99.90
20985;DHT22;10651;47.552;7.606;2023-03-23T13:03:06;19.00;99.90
20985;DHT22;10651;47.552;7.606;2023-03-23T13:05:42;19.00;99.90
20985;DHT22;10651;47.552;7.606;2023-03-23T13:08:18;19.00;99.90
20985;DHT22;10651;47.552;7.606;2023-03-23T13:10:47;18.90;99.90
20985;DHT22;10651;47.552;7.606;2023-03-23T13:13:23;19.00;99.90
20985;DHT22;10651;47.552;7.606;2023-03-23T13:16:07;18.80;99.90
20985;DHT22;10651;47.552;7.606;2023-03-23T13:24:26;18.60;99.90
20985;DHT22;10651;47.552;7.606;2023-03-23T13:26:53;18.60;99.90
20985;DHT22;10651;47.552;7.606;2023-03-23T13:29:24;18.60;99.90
20985;DHT22;10651;47.552;7.606;2023-03-23T13:31:51;18.50;99.90
20985;DHT22;10651;47.552;7.606;2023-03-23T13:34:30;18.50;99.90
20985;DHT22;10651;47.552;7.606;2023-03-23T13:37:10;18.40;99.90
20985;DHT22;10651;47.552;7.606;2023-03-23T13:39:59;18.40;99.90
20985;DHT22;10651;47.552;7.606;2023-03-23T13:42:30;18.20;99.90
20985;DHT22;10651;47.552;7.606;2023-03-23T13:48:19;18.20;99.90
20985;DHT22;10651;47.552;7.606;2023-03-23T13:53:25;18.10;99.90
20985;DHT22;10651;47.552;7.606;2023-03-23T13:56:07;18.10;99.90
20985;DHT22;10651;47.552;7.606;2023-03-23T13:58:50;18.10;99.90
20985;DHT22;10651;47.552;7.606;2023-03-23T14:01:36;18.20;99.90
20985;DHT22;10651;47.552;7.606;2023-03-23T14:04:07;18.20;99.90
20985;DHT22;10651;47.552;7.606;2023-03-23T14:06:36;18.30;99.90
20985;DHT22;10651;47.552;7.606;2023-03-23T14:12:13;18.30;99.90
20985;DHT22;10651;47.552;7.606;2023-03-23T14:15:01;18.30;99.90
20985;DHT22;10651;47.552;7.606;2023-03-23T14:17:50;18.30;99.90
20985;DHT22;10651;47.552;7.606;2023-03-23T14:20:29;18.30;99.90
20985;DHT22;10651;47.552;7.606;2023-03-23T14:23:01;18.40;99.90
20985;DHT22;10651;47.552;7.606;2023-03-23T14:25:30;18.40;99.90
20985;DHT22;10651;47.552;7.606;2023-03-23T14:28:27;18.50;99.90
20985;DHT22;10651;47.552;7.606;2023-03-23T14:37:23;18.30;99.90
20985;DHT22;10651;47.552;7.606;2023-03-23T14:40:02;18.30;99.90
20985;DHT22;10651;47.552;7.606;2023-03-23T14:42:53;18.30;99.90
20985;DHT22;10651;47.552;7.606;2023-03-23T14:45:31;18.50;99.90
20985;DHT22;10651;47.552;7.606;2023-03-23T14:48:20;18.40;99.90
20985;DHT22;10651;47.552;7.606;2023-03-23T14:53:52;18.30;99.90
20985;DHT22;10651;47.552;7.606;2023-03-23T14:57:02;18.40;99.90
20985;DHT22;10651;47.552;7.606;2023-03-23T14:59:34;18.30;99.90
20985;DHT22;10651;47.552;7.606;2023-03-23T15:02:03;18.30;99.90
20985;DHT22;10651;47.552;7.606;2023-03-23T15:04:30;18.30;99.90
20985;DHT22;10651;47.552;7.606;2023-03-23T15:07:03;18.30;99.90
20985;DHT22;10651;47.552;7.606;2023-03-23T16:09:26;17.80;99.90
20985;DHT22;10651;47.552;7.606;2023-03-23T16:12:00;17.90;99.90
20985;DHT22;10651;47.552;7.606;2023-03-23T16:14:29;17.90;99.90
20985;DHT22;10651;47.552;7.606;2023-03-23T16:16:57;17.90;99.90
20985;DHT22;10651;47.552;7.606;2023-03-23T16:19:30;17.80;99.90
20985;DHT22;10651;47.552;7.606;2023-03-23T17:55:29;16.90;99.90
20985;DHT22;10651;47.552;7.606;2023-03-23T17:58:00;16.80;99.90
20985;DHT22;10651;47.552;7.606;2023-03-23T18:01:15;16.80;99.90
20985;DHT22;10651;47.552;7.606;2023-03-23T18:21:13;16.70;99.90
20985;DHT22;10651;47.552;7.606;2023-03-23T18:23:39;16.70;99.90
20985;DHT22;10651;47.552;7.606;2023-03-23T18:26:33;16.70;99.90
20985;DHT22;10651;47.552;7.606;2023-03-23T18:28:59;16.70;99.90
20985;DHT22;10651;47.552;7.606;2023-03-23T18:31:43;16.70;99.90
20985;DHT22;10651;47.552;7.606;2023-03-23T18:34:24;16.70;99.90
20985;DHT22;10651;47.552;7.606;2023-03-23T18:37:05;16.70;99.90
20985;DHT22;10651;47.552;7.606;2023-03-23T18:46:44;16.60;99.90
20985;DHT22;10651;47.552;7.606;2023-03-23T18:49:19;16.60;99.90
20985;DHT22;10651;47.552;7.606;2023-03-23T18:51:45;16.50;99.90
20985;DHT22;10651;47.552;7.606;2023-03-23T19:10:00;16.70;99.90
20985;DHT22;10651;47.552;7.606;2023-03-23T19:12:29;16.60;99.90
20985;DHT22;10651;47.552;7.606;2023-03-23T19:15:01;16.60;99.90
20985;DHT22;10651;47.552;7.606;2023-03-23T19:17:32;16.50;99.90
20985;DHT22;10651;47.552;7.606;2023-03-23T19:27:01;16.50;99.90
20985;DHT22;10651;47.552;7.606;2023-03-23T19:29:28;16.40;99.90
20985;DHT22;10651;47.552;7.606;2023-03-23T19:31:54;16.50;99.90
20985;DHT22;10651;47.552;7.606;2023-03-23T19:34:24;16.40;99.90
20985;DHT22;10651;47.552;7.606;2023-03-23T19:39:28;16.40;99.90
20985;DHT22;10651;47.552;7.606;2023-03-23T19:44:46;16.30;99.90
20985;DHT22;10651;47.552;7.606;2023-03-23T19:47:15;16.30;99.90
20985;DHT22;10651;47.552;7.606;2023-03-23T19:49:41;16.40;99.90
20985;DHT22;10651;47.552;7.606;2023-03-23T19:52:16;16.40;99.90
20985;DHT22;10651;47.552;7.606;2023-03-23T19:54:45;16.40;99.90
20985;DHT22;10651;47.552;7.606;2023-03-23T19:57:11;16.30;99.90
20985;DHT22;10651;47.552;7.606;2023-03-23T19:59:57;16.20;99.90
20985;DHT22;10651;47.552;7.606;2023-03-23T20:03:00;16.30;99.90
20985;DHT22;10651;47.552;7.606;2023-03-23T20:05:38;16.20;99.90
20985;DHT22;10651;47.552;7.606;2023-03-23T20:08:04;16.20;99.90
20985;DHT22;10651;47.552;7.606;2023-03-23T20:10:38;16.10;99.90
20985;DHT22;10651;47.552;7.606;2023-03-23T20:13:28;16.10;99.90
20985;DHT22;10651;47.552;7.606;2023-03-23T20:15:57;16.10;99.90
20985;DHT22;10651;47.552;7.606;2023-03-23T20:18:26;16.10;99.90
20985;DHT22;10651;47.552;7.606;2023-03-23T20:28:26;15.90;99.90
20985;DHT22;10651;47.552;7.606;2023-03-23T20:31:25;15.90;99.90
20985;DHT22;10651;47.552;7.606;2023-03-23T20:34:06;15.90;99.90
20985;DHT22;10651;47.552;7.606;2023-03-23T20:39:35;15.90;99.90
20985;DHT22;10651;47.552;7.606;2023-03-23T20:42:14;15.90;99.90
20985;DHT22;10651;47.552;7.606;2023-03-23T20:44:40;15.90;99.90
20985;DHT22;10651;47.552;7.606;2023-03-23T20:50:18;16.00;99.90
20985;DHT22;10651;47.552;7.606;2023-03-23T20:56:33;16.00;99.90
20985;DHT22;10651;47.552;7.606;2023-03-23T20:59:41;15.90;99.90
20985;DHT22;10651;47.552;7.606;2023-03-23T21:09:27;16.00;99.90
20985;DHT22;10651;47.552;7.606;2023-03-23T21:22:28;15.90;99.90
20985;DHT22;10651;47.552;7.606;2023-03-23T21:28:27;15.80;99.90
20985;DHT22;10651;47.552;7.606;2023-03-23T21:31:19;15.80;99.90
20985;DHT22;10651;47.552;7.606;2023-03-23T21:34:21;15.80;99.90
20985;DHT22;10651;47.552;7.606;2023-03-23T21:37:18;15.90;99.90
20985;DHT22;10651;47.552;7.606;2023-03-23T21:40:06;15.90;99.90
20985;DHT22;10651;47.552;7.606;2023-03-23T21:43:16;15.90;99.90
20985;DHT22;10651;47.552;7.606;2023-03-23T21:46:02;15.90;99.90
20985;DHT22;10651;47.552;7.606;2023-03-23T21:56:00;15.90;99.90
20985;DHT22;10651;47.552;7.606;2023-03-23T21:58:42;15.90;99.90
20985;DHT22;10651;47.552;7.606;2023-03-23T22:01:26;15.90;99.90
20985;DHT22;10651;47.552;7.606;2023-03-23T22:04:07;15.90;99.90
20985;DHT22;10651;47.552;7.606;2023-03-23T22:09:44;16.00;99.90
20985;DHT22;10651;47.552;7.606;2023-03-23T22:12:13;15.90;99.90
20985;DHT22;10651;47.552;7.606;2023-03-23T22:15:05;16.00;99.90
20985;DHT22;10651;47.552;7.606;2023-03-23T22:25:09;16.30;99.90
20985;DHT22;10651;47.552;7.606;2023-03-23T22:28:11;16.30;99.90
20985;DHT22;10651;47.552;7.606;2023-03-23T22:34:17;16.30;99.90
20985;DHT22;10651;47.552;7.606;2023-03-23T22:37:24;16.40;99.90
20985;DHT22;10651;47.552;7.606;2023-03-23T22:43:10;16.50;99.90
20985;DHT22;10651;47.552;7.606;2023-03-23T22:45:39;16.50;99.90
20985;DHT22;10651;47.552;7.606;2023-03-23T22:48:30;16.50;99.90
20985;DHT22;10651;47.552;7.606;2023-03-23T22:51:15;16.60;99.90
20985;DHT22;10651;47.552;7.606;2023-03-23T22:54:08;16.50;99.90
20985;DHT22;10651;47.552;7.606;2023-03-23T22:56:47;16.50;99.90
20985;DHT22;10651;47.552;7.606;2023-03-23T22:59:31;16.50;99.90
20985;DHT22;10651;47.552;7.606;2023-03-23T23:02:02;16.40;99.90
